sensor_id;sensor_type;location;lat;lon;timestamp;P1;durP1;ratioP1;P2;durP2;ratioP2
69081;SDS011;69029;51.986;5.760;2023-06-10T00:01:32;8.57;;;4.90;;
69081;SDS011;69029;51.986;5.760;2023-06-10T00:03:59;10.07;;;5.18;;
69081;SDS011;69029;51.986;5.760;2023-06-10T00:06:24;6.78;;;4.82;;
69081;SDS011;69029;51.986;5.760;2023-06-10T00:08:50;7.50;;;4.70;;
69081;SDS011;69029;51.986;5.760;2023-06-10T00:11:16;8.32;;;5.00;;
69081;SDS011;69029;51.986;5.760;2023-06-10T00:13:41;9.10;;;4.82;;
69081;SDS011;69029;51.986;5.760;2023-06-10T00:16:07;8.05;;;4.55;;
69081;SDS011;69029;51.986;5.760;2023-06-10T00:18:33;9.45;;;5.10;;
69081;SDS011;69029;51.986;5.760;2023-06-10T00:21:02;8.65;;;4.68;;
69081;SDS011;69029;51.986;5.760;2023-06-10T00:23:30;8.20;;;5.30;;
69081;SDS011;69029;51.986;5.760;2023-06-10T00:25:58;7.25;;;4.80;;
69081;SDS011;69029;51.986;5.760;2023-06-10T00:28:25;9.35;;;4.80;;
69081;SDS011;69029;51.986;5.760;2023-06-10T00:30:51;8.13;;;4.68;;
69081;SDS011;69029;51.986;5.760;2023-06-10T00:33:18;9.15;;;4.75;;
69081;SDS011;69029;51.986;5.760;2023-06-10T00:35:44;8.02;;;4.47;;
69081;SDS011;69029;51.986;5.760;2023-06-10T00:38:09;8.38;;;4.53;;
69081;SDS011;69029;51.986;5.760;2023-06-10T00:40:41;11.20;;;5.22;;
69081;SDS011;69029;51.986;5.760;2023-06-10T00:43:07;6.20;;;4.85;;
69081;SDS011;69029;51.986;5.760;2023-06-10T00:45:33;7.65;;;4.70;;
69081;SDS011;69029;51.986;5.760;2023-06-10T00:47:59;8.65;;;4.65;;
69081;SDS011;69029;51.986;5.760;2023-06-10T00:50:28;7.88;;;4.53;;
69081;SDS011;69029;51.986;5.760;2023-06-10T00:52:55;5.63;;;4.60;;
69081;SDS011;69029;51.986;5.760;2023-06-10T00:55:22;7.65;;;4.80;;
69081;SDS011;69029;51.986;5.760;2023-06-10T00:57:48;6.80;;;4.18;;
69081;SDS011;69029;51.986;5.760;2023-06-10T01:00:14;6.13;;;4.70;;
69081;SDS011;69029;51.986;5.760;2023-06-10T01:02:41;7.43;;;4.47;;
69081;SDS011;69029;51.986;5.760;2023-06-10T01:05:07;9.55;;;4.70;;
69081;SDS011;69029;51.986;5.760;2023-06-10T01:07:37;5.72;;;4.63;;
69081;SDS011;69029;51.986;5.760;2023-06-10T01:10:29;8.40;;;4.40;;
69081;SDS011;69029;51.986;5.760;2023-06-10T01:13:07;9.38;;;4.47;;
69081;SDS011;69029;51.986;5.760;2023-06-10T01:15:37;8.63;;;4.00;;
69081;SDS011;69029;51.986;5.760;2023-06-10T01:20:32;6.03;;;4.82;;
69081;SDS011;69029;51.986;5.760;2023-06-10T01:22:59;8.05;;;4.53;;
69081;SDS011;69029;51.986;5.760;2023-06-10T01:25:26;9.45;;;4.38;;
69081;SDS011;69029;51.986;5.760;2023-06-10T01:30:41;6.28;;;4.60;;
69081;SDS011;69029;51.986;5.760;2023-06-10T01:33:14;11.40;;;4.30;;
69081;SDS011;69029;51.986;5.760;2023-06-10T01:35:43;6.38;;;4.32;;
69081;SDS011;69029;51.986;5.760;2023-06-10T01:38:11;7.20;;;4.65;;
69081;SDS011;69029;51.986;5.760;2023-06-10T01:40:39;6.57;;;4.40;;
69081;SDS011;69029;51.986;5.760;2023-06-10T01:43:05;10.68;;;4.30;;
69081;SDS011;69029;51.986;5.760;2023-06-10T01:45:34;6.90;;;4.07;;
69081;SDS011;69029;51.986;5.760;2023-06-10T01:48:00;6.60;;;4.55;;
69081;SDS011;69029;51.986;5.760;2023-06-10T01:50:25;7.32;;;4.20;;
69081;SDS011;69029;51.986;5.760;2023-06-10T01:52:51;6.47;;;4.00;;
69081;SDS011;69029;51.986;5.760;2023-06-10T01:55:16;7.32;;;4.03;;
69081;SDS011;69029;51.986;5.760;2023-06-10T01:57:42;8.52;;;4.30;;
69081;SDS011;69029;51.986;5.760;2023-06-10T02:00:08;7.07;;;4.00;;
69081;SDS011;69029;51.986;5.760;2023-06-10T02:02:35;7.95;;;4.10;;
69081;SDS011;69029;51.986;5.760;2023-06-10T02:05:00;5.50;;;3.72;;
69081;SDS011;69029;51.986;5.760;2023-06-10T02:07:26;5.30;;;4.05;;
69081;SDS011;69029;51.986;5.760;2023-06-10T02:09:52;10.00;;;4.18;;
69081;SDS011;69029;51.986;5.760;2023-06-10T02:12:17;8.90;;;4.10;;
69081;SDS011;69029;51.986;5.760;2023-06-10T02:14:43;9.13;;;4.07;;
69081;SDS011;69029;51.986;5.760;2023-06-10T02:17:08;10.30;;;3.88;;
69081;SDS011;69029;51.986;5.760;2023-06-10T02:19:37;6.97;;;3.97;;
69081;SDS011;69029;51.986;5.760;2023-06-10T02:22:07;8.02;;;4.18;;
69081;SDS011;69029;51.986;5.760;2023-06-10T02:24:33;6.07;;;4.15;;
69081;SDS011;69029;51.986;5.760;2023-06-10T02:26:58;8.20;;;4.40;;
69081;SDS011;69029;51.986;5.760;2023-06-10T02:29:28;6.10;;;4.22;;
69081;SDS011;69029;51.986;5.760;2023-06-10T02:31:53;7.53;;;4.18;;
69081;SDS011;69029;51.986;5.760;2023-06-10T02:34:19;7.32;;;4.40;;
69081;SDS011;69029;51.986;5.760;2023-06-10T02:36:44;8.75;;;4.18;;
69081;SDS011;69029;51.986;5.760;2023-06-10T02:39:10;7.18;;;3.97;;
69081;SDS011;69029;51.986;5.760;2023-06-10T02:41:36;8.02;;;4.13;;
69081;SDS011;69029;51.986;5.760;2023-06-10T02:44:01;10.27;;;4.10;;
69081;SDS011;69029;51.986;5.760;2023-06-10T02:46:27;8.02;;;4.22;;
69081;SDS011;69029;51.986;5.760;2023-06-10T02:48:53;5.32;;;4.10;;
69081;SDS011;69029;51.986;5.760;2023-06-10T02:51:19;6.78;;;4.20;;
69081;SDS011;69029;51.986;5.760;2023-06-10T02:53:46;7.70;;;4.03;;
69081;SDS011;69029;51.986;5.760;2023-06-10T02:56:11;5.63;;;3.88;;
69081;SDS011;69029;51.986;5.760;2023-06-10T02:58:38;10.75;;;3.90;;
69081;SDS011;69029;51.986;5.760;2023-06-10T03:01:04;13.48;;;4.20;;
69081;SDS011;69029;51.986;5.760;2023-06-10T03:03:29;9.10;;;4.30;;
69081;SDS011;69029;51.986;5.760;2023-06-10T03:05:55;10.43;;;4.00;;
69081;SDS011;69029;51.986;5.760;2023-06-10T03:08:21;6.55;;;3.97;;
69081;SDS011;69029;51.986;5.760;2023-06-10T03:10:47;6.95;;;3.78;;
69081;SDS011;69029;51.986;5.760;2023-06-10T03:13:15;9.07;;;4.25;;
69081;SDS011;69029;51.986;5.760;2023-06-10T03:15:41;8.50;;;4.13;;
69081;SDS011;69029;51.986;5.760;2023-06-10T03:18:07;9.23;;;4.18;;
69081;SDS011;69029;51.986;5.760;2023-06-10T03:20:32;8.75;;;4.15;;
69081;SDS011;69029;51.986;5.760;2023-06-10T03:23:02;7.32;;;4.07;;
69081;SDS011;69029;51.986;5.760;2023-06-10T03:25:30;11.60;;;4.38;;
69081;SDS011;69029;51.986;5.760;2023-06-10T03:27:56;8.20;;;4.57;;
69081;SDS011;69029;51.986;5.760;2023-06-10T03:30:21;15.40;;;4.65;;
69081;SDS011;69029;51.986;5.760;2023-06-10T03:32:47;10.57;;;4.00;;
69081;SDS011;69029;51.986;5.760;2023-06-10T03:35:13;6.40;;;4.03;;
69081;SDS011;69029;51.986;5.760;2023-06-10T03:37:39;9.75;;;4.28;;
69081;SDS011;69029;51.986;5.760;2023-06-10T03:40:05;10.68;;;4.18;;
69081;SDS011;69029;51.986;5.760;2023-06-10T03:42:33;7.90;;;4.13;;
69081;SDS011;69029;51.986;5.760;2023-06-10T03:44:59;5.45;;;4.25;;
69081;SDS011;69029;51.986;5.760;2023-06-10T03:47:25;6.65;;;4.20;;
69081;SDS011;69029;51.986;5.760;2023-06-10T03:49:50;8.93;;;4.18;;
69081;SDS011;69029;51.986;5.760;2023-06-10T03:52:17;7.10;;;4.35;;
69081;SDS011;69029;51.986;5.760;2023-06-10T03:54:42;8.18;;;4.03;;
69081;SDS011;69029;51.986;5.760;2023-06-10T03:57:08;9.18;;;4.13;;
69081;SDS011;69029;51.986;5.760;2023-06-10T03:59:34;7.70;;;4.38;;
69081;SDS011;69029;51.986;5.760;2023-06-10T04:02:00;9.07;;;4.10;;
69081;SDS011;69029;51.986;5.760;2023-06-10T04:04:26;8.38;;;4.18;;
69081;SDS011;69029;51.986;5.760;2023-06-10T04:06:52;7.85;;;4.20;;
69081;SDS011;69029;51.986;5.760;2023-06-10T04:09:17;9.85;;;4.32;;
69081;SDS011;69029;51.986;5.760;2023-06-10T04:11:43;5.68;;;3.90;;
69081;SDS011;69029;51.986;5.760;2023-06-10T04:14:09;11.10;;;4.53;;
69081;SDS011;69029;51.986;5.760;2023-06-10T04:16:34;7.68;;;4.20;;
69081;SDS011;69029;51.986;5.760;2023-06-10T04:19:00;10.70;;;4.38;;
69081;SDS011;69029;51.986;5.760;2023-06-10T04:21:26;7.93;;;4.20;;
69081;SDS011;69029;51.986;5.760;2023-06-10T04:23:52;7.13;;;4.30;;
69081;SDS011;69029;51.986;5.760;2023-06-10T04:26:18;10.02;;;4.20;;
69081;SDS011;69029;51.986;5.760;2023-06-10T04:28:44;13.40;;;4.50;;
69081;SDS011;69029;51.986;5.760;2023-06-10T04:31:09;8.45;;;4.18;;
69081;SDS011;69029;51.986;5.760;2023-06-10T04:33:35;11.82;;;4.53;;
69081;SDS011;69029;51.986;5.760;2023-06-10T04:36:01;6.15;;;4.10;;
69081;SDS011;69029;51.986;5.760;2023-06-10T04:38:26;11.57;;;4.20;;
69081;SDS011;69029;51.986;5.760;2023-06-10T04:40:53;7.10;;;4.20;;
69081;SDS011;69029;51.986;5.760;2023-06-10T04:43:18;8.68;;;4.10;;
69081;SDS011;69029;51.986;5.760;2023-06-10T04:45:44;5.93;;;4.07;;
69081;SDS011;69029;51.986;5.760;2023-06-10T04:48:10;7.50;;;4.00;;
69081;SDS011;69029;51.986;5.760;2023-06-10T04:50:36;11.20;;;4.28;;
69081;SDS011;69029;51.986;5.760;2023-06-10T04:53:02;7.65;;;3.92;;
69081;SDS011;69029;51.986;5.760;2023-06-10T04:55:28;7.65;;;4.38;;
69081;SDS011;69029;51.986;5.760;2023-06-10T04:57:53;8.75;;;4.30;;
69081;SDS011;69029;51.986;5.760;2023-06-10T05:00:19;7.90;;;4.20;;
69081;SDS011;69029;51.986;5.760;2023-06-10T05:02:45;8.77;;;4.22;;
69081;SDS011;69029;51.986;5.760;2023-06-10T05:05:14;10.45;;;4.07;;
69081;SDS011;69029;51.986;5.760;2023-06-10T05:07:43;10.05;;;4.25;;
69081;SDS011;69029;51.986;5.760;2023-06-10T05:10:09;11.45;;;4.28;;
69081;SDS011;69029;51.986;5.760;2023-06-10T05:12:35;6.72;;;4.00;;
69081;SDS011;69029;51.986;5.760;2023-06-10T05:15:00;7.47;;;4.00;;
69081;SDS011;69029;51.986;5.760;2023-06-10T05:17:26;8.70;;;4.25;;
69081;SDS011;69029;51.986;5.760;2023-06-10T05:19:53;9.65;;;4.22;;
69081;SDS011;69029;51.986;5.760;2023-06-10T05:22:18;7.53;;;4.10;;
69081;SDS011;69029;51.986;5.760;2023-06-10T05:24:44;9.13;;;4.40;;
69081;SDS011;69029;51.986;5.760;2023-06-10T05:27:10;9.38;;;4.38;;
69081;SDS011;69029;51.986;5.760;2023-06-10T05:29:36;11.10;;;4.30;;
69081;SDS011;69029;51.986;5.760;2023-06-10T05:32:01;7.18;;;4.45;;
69081;SDS011;69029;51.986;5.760;2023-06-10T05:34:30;6.35;;;4.20;;
69081;SDS011;69029;51.986;5.760;2023-06-10T05:36:56;7.43;;;4.10;;
69081;SDS011;69029;51.986;5.760;2023-06-10T05:39:22;9.65;;;4.65;;
69081;SDS011;69029;51.986;5.760;2023-06-10T05:41:48;8.45;;;4.03;;
69081;SDS011;69029;51.986;5.760;2023-06-10T05:44:13;6.93;;;3.67;;
69081;SDS011;69029;51.986;5.760;2023-06-10T05:46:39;10.48;;;4.07;;
69081;SDS011;69029;51.986;5.760;2023-06-10T05:49:04;8.43;;;4.28;;
69081;SDS011;69029;51.986;5.760;2023-06-10T05:51:30;7.15;;;4.05;;
69081;SDS011;69029;51.986;5.760;2023-06-10T05:53:56;8.10;;;3.90;;
69081;SDS011;69029;51.986;5.760;2023-06-10T05:56:21;9.50;;;4.35;;
69081;SDS011;69029;51.986;5.760;2023-06-10T05:58:47;9.45;;;3.80;;
69081;SDS011;69029;51.986;5.760;2023-06-10T06:01:13;5.47;;;3.60;;
69081;SDS011;69029;51.986;5.760;2023-06-10T06:03:39;6.68;;;4.10;;
69081;SDS011;69029;51.986;5.760;2023-06-10T06:06:05;10.80;;;4.20;;
69081;SDS011;69029;51.986;5.760;2023-06-10T06:08:30;8.13;;;4.00;;
69081;SDS011;69029;51.986;5.760;2023-06-10T06:10:56;9.88;;;4.13;;
69081;SDS011;69029;51.986;5.760;2023-06-10T06:13:22;8.80;;;4.07;;
69081;SDS011;69029;51.986;5.760;2023-06-10T06:15:48;6.88;;;3.83;;
69081;SDS011;69029;51.986;5.760;2023-06-10T06:18:14;9.93;;;4.00;;
69081;SDS011;69029;51.986;5.760;2023-06-10T06:20:40;6.22;;;4.03;;
69081;SDS011;69029;51.986;5.760;2023-06-10T06:23:05;9.65;;;3.90;;
69081;SDS011;69029;51.986;5.760;2023-06-10T06:25:33;5.00;;;3.70;;
69081;SDS011;69029;51.986;5.760;2023-06-10T06:28:00;6.88;;;3.90;;
69081;SDS011;69029;51.986;5.760;2023-06-10T06:30:26;6.90;;;3.80;;
69081;SDS011;69029;51.986;5.760;2023-06-10T06:32:51;6.10;;;3.75;;
69081;SDS011;69029;51.986;5.760;2023-06-10T06:35:17;10.55;;;4.22;;
69081;SDS011;69029;51.986;5.760;2023-06-10T06:37:43;9.60;;;4.00;;
69081;SDS011;69029;51.986;5.760;2023-06-10T06:40:09;8.50;;;3.80;;
69081;SDS011;69029;51.986;5.760;2023-06-10T06:42:35;8.02;;;3.67;;
69081;SDS011;69029;51.986;5.760;2023-06-10T06:45:01;5.93;;;3.45;;
69081;SDS011;69029;51.986;5.760;2023-06-10T06:47:26;4.47;;;3.45;;
69081;SDS011;69029;51.986;5.760;2023-06-10T06:49:52;12.15;;;3.65;;
69081;SDS011;69029;51.986;5.760;2023-06-10T06:52:17;5.35;;;3.40;;
69081;SDS011;69029;51.986;5.760;2023-06-10T06:54:44;7.60;;;3.50;;
69081;SDS011;69029;51.986;5.760;2023-06-10T06:57:09;8.70;;;3.30;;
69081;SDS011;69029;51.986;5.760;2023-06-10T06:59:35;8.70;;;3.50;;
69081;SDS011;69029;51.986;5.760;2023-06-10T07:02:01;11.18;;;3.70;;
69081;SDS011;69029;51.986;5.760;2023-06-10T07:04:27;7.03;;;3.25;;
69081;SDS011;69029;51.986;5.760;2023-06-10T07:06:53;5.85;;;3.30;;
69081;SDS011;69029;51.986;5.760;2023-06-10T07:09:19;8.90;;;3.70;;
69081;SDS011;69029;51.986;5.760;2023-06-10T07:11:45;6.97;;;3.83;;
69081;SDS011;69029;51.986;5.760;2023-06-10T07:14:10;9.18;;;3.83;;
69081;SDS011;69029;51.986;5.760;2023-06-10T07:16:36;10.25;;;3.60;;
69081;SDS011;69029;51.986;5.760;2023-06-10T07:19:01;8.27;;;3.55;;
69081;SDS011;69029;51.986;5.760;2023-06-10T07:21:27;9.20;;;3.70;;
69081;SDS011;69029;51.986;5.760;2023-06-10T07:23:54;17.13;;;3.83;;
69081;SDS011;69029;51.986;5.760;2023-06-10T07:26:22;7.32;;;3.50;;
69081;SDS011;69029;51.986;5.760;2023-06-10T07:28:47;7.97;;;3.70;;
69081;SDS011;69029;51.986;5.760;2023-06-10T07:31:13;7.70;;;3.47;;
69081;SDS011;69029;51.986;5.760;2023-06-10T07:33:39;8.10;;;3.63;;
69081;SDS011;69029;51.986;5.760;2023-06-10T07:36:05;7.22;;;3.60;;
69081;SDS011;69029;51.986;5.760;2023-06-10T07:38:31;5.88;;;3.38;;
69081;SDS011;69029;51.986;5.760;2023-06-10T07:40:56;7.95;;;3.90;;
69081;SDS011;69029;51.986;5.760;2023-06-10T07:43:22;7.25;;;3.00;;
69081;SDS011;69029;51.986;5.760;2023-06-10T07:45:48;8.45;;;3.40;;
69081;SDS011;69029;51.986;5.760;2023-06-10T07:48:14;14.45;;;4.85;;
69081;SDS011;69029;51.986;5.760;2023-06-10T07:50:40;10.52;;;4.22;;
69081;SDS011;69029;51.986;5.760;2023-06-10T07:53:05;6.07;;;3.25;;
69081;SDS011;69029;51.986;5.760;2023-06-10T07:55:31;8.60;;;3.40;;
69081;SDS011;69029;51.986;5.760;2023-06-10T07:57:57;28.65;;;9.02;;
69081;SDS011;69029;51.986;5.760;2023-06-10T08:00:22;8.90;;;4.20;;
69081;SDS011;69029;51.986;5.760;2023-06-10T08:02:48;9.27;;;4.72;;
69081;SDS011;69029;51.986;5.760;2023-06-10T08:05:13;10.55;;;4.53;;
69081;SDS011;69029;51.986;5.760;2023-06-10T08:07:39;8.63;;;3.75;;
69081;SDS011;69029;51.986;5.760;2023-06-10T08:10:05;7.78;;;4.15;;
69081;SDS011;69029;51.986;5.760;2023-06-10T08:12:32;9.93;;;3.95;;
69081;SDS011;69029;51.986;5.760;2023-06-10T08:14:58;13.25;;;5.22;;
69081;SDS011;69029;51.986;5.760;2023-06-10T08:17:24;6.25;;;3.50;;
69081;SDS011;69029;51.986;5.760;2023-06-10T08:19:50;11.95;;;3.63;;
69081;SDS011;69029;51.986;5.760;2023-06-10T08:22:15;8.57;;;4.15;;
69081;SDS011;69029;51.986;5.760;2023-06-10T08:24:41;12.95;;;3.70;;
69081;SDS011;69029;51.986;5.760;2023-06-10T08:27:07;11.77;;;3.90;;
69081;SDS011;69029;51.986;5.760;2023-06-10T08:29:32;6.78;;;3.60;;
69081;SDS011;69029;51.986;5.760;2023-06-10T08:31:58;5.00;;;3.30;;
69081;SDS011;69029;51.986;5.760;2023-06-10T08:34:24;8.25;;;3.75;;
69081;SDS011;69029;51.986;5.760;2023-06-10T08:36:50;7.82;;;3.15;;
69081;SDS011;69029;51.986;5.760;2023-06-10T08:39:18;9.02;;;3.80;;
69081;SDS011;69029;51.986;5.760;2023-06-10T08:41:44;6.65;;;3.92;;
69081;SDS011;69029;51.986;5.760;2023-06-10T08:44:17;6.67;;;4.17;;
69081;SDS011;69029;51.986;5.760;2023-06-10T08:46:55;7.20;;;3.97;;
69081;SDS011;69029;51.986;5.760;2023-06-10T08:49:23;5.18;;;3.70;;
69081;SDS011;69029;51.986;5.760;2023-06-10T08:51:54;9.73;;;4.82;;
69081;SDS011;69029;51.986;5.760;2023-06-10T08:54:25;6.65;;;3.35;;
69081;SDS011;69029;51.986;5.760;2023-06-10T08:56:53;5.57;;;3.03;;
69081;SDS011;69029;51.986;5.760;2023-06-10T08:59:22;6.05;;;3.35;;
69081;SDS011;69029;51.986;5.760;2023-06-10T09:01:50;8.15;;;3.50;;
69081;SDS011;69029;51.986;5.760;2023-06-10T09:04:16;9.07;;;3.42;;
69081;SDS011;69029;51.986;5.760;2023-06-10T09:06:43;8.25;;;3.42;;
69081;SDS011;69029;51.986;5.760;2023-06-10T09:09:09;7.90;;;3.33;;
69081;SDS011;69029;51.986;5.760;2023-06-10T09:11:37;7.85;;;3.13;;
69081;SDS011;69029;51.986;5.760;2023-06-10T09:14:03;10.02;;;3.65;;
69081;SDS011;69029;51.986;5.760;2023-06-10T09:16:29;4.32;;;3.10;;
69081;SDS011;69029;51.986;5.760;2023-06-10T09:18:54;8.40;;;4.07;;
69081;SDS011;69029;51.986;5.760;2023-06-10T09:21:24;5.85;;;3.13;;
69081;SDS011;69029;51.986;5.760;2023-06-10T09:23:50;4.90;;;3.17;;
69081;SDS011;69029;51.986;5.760;2023-06-10T09:26:16;6.53;;;3.50;;
69081;SDS011;69029;51.986;5.760;2023-06-10T09:28:48;5.78;;;3.47;;
69081;SDS011;69029;51.986;5.760;2023-06-10T09:33:43;4.93;;;3.22;;
69081;SDS011;69029;51.986;5.760;2023-06-10T09:36:09;7.47;;;3.40;;
69081;SDS011;69029;51.986;5.760;2023-06-10T09:38:36;7.35;;;3.33;;
69081;SDS011;69029;51.986;5.760;2023-06-10T09:41:02;3.90;;;2.80;;
69081;SDS011;69029;51.986;5.760;2023-06-10T09:43:38;9.20;;;3.50;;
69081;SDS011;69029;51.986;5.760;2023-06-10T09:46:05;7.72;;;3.17;;
69081;SDS011;69029;51.986;5.760;2023-06-10T09:48:34;5.93;;;2.90;;
69081;SDS011;69029;51.986;5.760;2023-06-10T09:51:00;6.45;;;3.00;;
69081;SDS011;69029;51.986;5.760;2023-06-10T09:53:26;7.32;;;3.17;;
69081;SDS011;69029;51.986;5.760;2023-06-10T09:55:52;5.43;;;2.88;;
69081;SDS011;69029;51.986;5.760;2023-06-10T09:58:18;7.65;;;3.13;;
69081;SDS011;69029;51.986;5.760;2023-06-10T10:00:58;4.30;;;3.08;;
69081;SDS011;69029;51.986;5.760;2023-06-10T10:03:23;5.07;;;2.88;;
69081;SDS011;69029;51.986;5.760;2023-06-10T10:05:49;3.85;;;3.08;;
69081;SDS011;69029;51.986;5.760;2023-06-10T10:08:15;4.80;;;3.50;;
69081;SDS011;69029;51.986;5.760;2023-06-10T10:10:40;6.00;;;2.95;;
69081;SDS011;69029;51.986;5.760;2023-06-10T10:13:06;7.63;;;3.10;;
69081;SDS011;69029;51.986;5.760;2023-06-10T10:15:32;4.75;;;3.00;;
69081;SDS011;69029;51.986;5.760;2023-06-10T10:18:04;3.35;;;2.80;;
69081;SDS011;69029;51.986;5.760;2023-06-10T10:20:33;5.80;;;3.10;;
69081;SDS011;69029;51.986;5.760;2023-06-10T10:23:00;9.23;;;3.00;;
69081;SDS011;69029;51.986;5.760;2023-06-10T10:25:34;6.70;;;2.95;;
69081;SDS011;69029;51.986;5.760;2023-06-10T10:28:12;3.53;;;2.63;;
69081;SDS011;69029;51.986;5.760;2023-06-10T10:33:26;7.65;;;2.80;;
69081;SDS011;69029;51.986;5.760;2023-06-10T10:36:01;4.22;;;3.08;;
69081;SDS011;69029;51.986;5.760;2023-06-10T10:38:27;11.07;;;2.95;;
69081;SDS011;69029;51.986;5.760;2023-06-10T10:40:53;6.20;;;2.95;;
69081;SDS011;69029;51.986;5.760;2023-06-10T10:43:21;4.53;;;3.00;;
69081;SDS011;69029;51.986;5.760;2023-06-10T10:45:57;4.40;;;2.53;;
69081;SDS011;69029;51.986;5.760;2023-06-10T10:48:24;5.85;;;2.80;;
69081;SDS011;69029;51.986;5.760;2023-06-10T10:50:56;3.70;;;2.72;;
69081;SDS011;69029;51.986;5.760;2023-06-10T10:53:23;3.67;;;2.78;;
69081;SDS011;69029;51.986;5.760;2023-06-10T10:56:06;6.43;;;2.70;;
69081;SDS011;69029;51.986;5.760;2023-06-10T10:58:39;7.70;;;2.75;;
69081;SDS011;69029;51.986;5.760;2023-06-10T11:01:12;7.38;;;3.10;;
69081;SDS011;69029;51.986;5.760;2023-06-10T11:03:45;4.88;;;3.00;;
69081;SDS011;69029;51.986;5.760;2023-06-10T11:16:29;4.25;;;2.38;;
69081;SDS011;69029;51.986;5.760;2023-06-10T11:19:02;6.22;;;2.53;;
69081;SDS011;69029;51.986;5.760;2023-06-10T11:21:28;3.15;;;2.42;;
69081;SDS011;69029;51.986;5.760;2023-06-10T11:23:54;4.07;;;2.38;;
69081;SDS011;69029;51.986;5.760;2023-06-10T11:33:53;2.85;;;2.25;;
69081;SDS011;69029;51.986;5.760;2023-06-10T11:36:20;3.17;;;2.47;;
69081;SDS011;69029;51.986;5.760;2023-06-10T11:38:46;4.90;;;2.60;;
69081;SDS011;69029;51.986;5.760;2023-06-10T11:41:12;4.40;;;2.70;;
69081;SDS011;69029;51.986;5.760;2023-06-10T11:43:47;4.78;;;2.53;;
69081;SDS011;69029;51.986;5.760;2023-06-10T11:46:14;4.45;;;2.80;;
69081;SDS011;69029;51.986;5.760;2023-06-10T11:48:48;3.47;;;2.40;;
69081;SDS011;69029;51.986;5.760;2023-06-10T11:51:17;4.05;;;2.60;;
69081;SDS011;69029;51.986;5.760;2023-06-10T11:53:49;5.78;;;2.35;;
69081;SDS011;69029;51.986;5.760;2023-06-10T11:56:21;4.05;;;2.75;;
69081;SDS011;69029;51.986;5.760;2023-06-10T11:58:55;5.65;;;2.60;;
69081;SDS011;69029;51.986;5.760;2023-06-10T12:01:22;3.60;;;2.50;;
69081;SDS011;69029;51.986;5.760;2023-06-10T12:04:02;4.68;;;2.70;;
69081;SDS011;69029;51.986;5.760;2023-06-10T12:06:38;5.63;;;2.65;;
69081;SDS011;69029;51.986;5.760;2023-06-10T12:09:24;6.65;;;2.50;;
69081;SDS011;69029;51.986;5.760;2023-06-10T12:11:58;4.13;;;2.40;;
69081;SDS011;69029;51.986;5.760;2023-06-10T12:17:23;3.40;;;2.55;;
69081;SDS011;69029;51.986;5.760;2023-06-10T12:20:02;4.18;;;2.45;;
69081;SDS011;69029;51.986;5.760;2023-06-10T12:22:40;6.32;;;2.65;;
69081;SDS011;69029;51.986;5.760;2023-06-10T12:25:10;5.38;;;2.65;;
69081;SDS011;69029;51.986;5.760;2023-06-10T12:27:36;5.07;;;2.78;;
69081;SDS011;69029;51.986;5.760;2023-06-10T12:30:04;8.05;;;2.75;;
69081;SDS011;69029;51.986;5.760;2023-06-10T12:35:06;5.45;;;2.45;;
69081;SDS011;69029;51.986;5.760;2023-06-10T12:37:32;4.50;;;2.50;;
69081;SDS011;69029;51.986;5.760;2023-06-10T12:40:02;4.50;;;2.72;;
69081;SDS011;69029;51.986;5.760;2023-06-10T12:42:30;3.08;;;2.42;;
69081;SDS011;69029;51.986;5.760;2023-06-10T12:44:56;3.78;;;2.50;;
69081;SDS011;69029;51.986;5.760;2023-06-10T12:47:36;4.78;;;2.42;;
69081;SDS011;69029;51.986;5.760;2023-06-10T12:50:06;6.88;;;2.70;;
69081;SDS011;69029;51.986;5.760;2023-06-10T12:52:32;9.65;;;3.00;;
69081;SDS011;69029;51.986;5.760;2023-06-10T12:54:58;6.45;;;2.70;;
69081;SDS011;69029;51.986;5.760;2023-06-10T12:57:25;5.97;;;2.45;;
69081;SDS011;69029;51.986;5.760;2023-06-10T12:59:51;2.97;;;2.55;;
69081;SDS011;69029;51.986;5.760;2023-06-10T13:02:22;3.50;;;2.30;;
69081;SDS011;69029;51.986;5.760;2023-06-10T13:04:49;3.03;;;2.72;;
69081;SDS011;69029;51.986;5.760;2023-06-10T13:07:15;5.00;;;2.90;;
69081;SDS011;69029;51.986;5.760;2023-06-10T13:09:42;4.10;;;2.55;;
69081;SDS011;69029;51.986;5.760;2023-06-10T13:12:08;2.92;;;2.22;;
69081;SDS011;69029;51.986;5.760;2023-06-10T13:14:34;4.40;;;2.13;;
69081;SDS011;69029;51.986;5.760;2023-06-10T13:16:59;5.57;;;2.67;;
69081;SDS011;69029;51.986;5.760;2023-06-10T13:19:25;3.55;;;2.38;;
69081;SDS011;69029;51.986;5.760;2023-06-10T13:21:51;4.85;;;2.70;;
69081;SDS011;69029;51.986;5.760;2023-06-10T13:24:17;3.63;;;2.45;;
69081;SDS011;69029;51.986;5.760;2023-06-10T13:26:42;4.32;;;2.25;;
69081;SDS011;69029;51.986;5.760;2023-06-10T13:29:08;4.25;;;2.60;;
69081;SDS011;69029;51.986;5.760;2023-06-10T13:31:39;2.40;;;2.20;;
69081;SDS011;69029;51.986;5.760;2023-06-10T13:34:05;4.85;;;2.60;;
69081;SDS011;69029;51.986;5.760;2023-06-10T13:36:31;8.52;;;2.53;;
69081;SDS011;69029;51.986;5.760;2023-06-10T13:38:56;3.05;;;2.33;;
69081;SDS011;69029;51.986;5.760;2023-06-10T13:41:22;6.93;;;2.45;;
69081;SDS011;69029;51.986;5.760;2023-06-10T13:43:48;3.95;;;2.70;;
69081;SDS011;69029;51.986;5.760;2023-06-10T13:46:13;4.93;;;2.65;;
69081;SDS011;69029;51.986;5.760;2023-06-10T13:48:39;4.82;;;2.78;;
69081;SDS011;69029;51.986;5.760;2023-06-10T13:51:05;4.40;;;2.63;;
69081;SDS011;69029;51.986;5.760;2023-06-10T13:53:31;3.28;;;2.80;;
69081;SDS011;69029;51.986;5.760;2023-06-10T13:55:57;7.65;;;2.28;;
69081;SDS011;69029;51.986;5.760;2023-06-10T13:58:22;4.22;;;2.45;;
69081;SDS011;69029;51.986;5.760;2023-06-10T14:00:48;5.55;;;2.50;;
69081;SDS011;69029;51.986;5.760;2023-06-10T14:03:14;4.68;;;2.50;;
69081;SDS011;69029;51.986;5.760;2023-06-10T14:05:40;8.15;;;2.75;;
69081;SDS011;69029;51.986;5.760;2023-06-10T14:08:05;3.47;;;2.60;;
69081;SDS011;69029;51.986;5.760;2023-06-10T14:10:31;3.45;;;2.50;;
69081;SDS011;69029;51.986;5.760;2023-06-10T14:12:56;3.22;;;2.50;;
69081;SDS011;69029;51.986;5.760;2023-06-10T14:15:22;2.97;;;2.20;;
69081;SDS011;69029;51.986;5.760;2023-06-10T14:17:47;3.60;;;2.28;;
69081;SDS011;69029;51.986;5.760;2023-06-10T14:20:13;6.80;;;2.65;;
69081;SDS011;69029;51.986;5.760;2023-06-10T14:22:39;7.57;;;2.30;;
69081;SDS011;69029;51.986;5.760;2023-06-10T14:25:05;4.30;;;2.40;;
69081;SDS011;69029;51.986;5.760;2023-06-10T14:27:31;5.55;;;2.70;;
69081;SDS011;69029;51.986;5.760;2023-06-10T14:29:57;6.35;;;2.45;;
69081;SDS011;69029;51.986;5.760;2023-06-10T14:32:22;2.67;;;2.40;;
69081;SDS011;69029;51.986;5.760;2023-06-10T14:34:48;5.55;;;2.45;;
69081;SDS011;69029;51.986;5.760;2023-06-10T14:37:14;3.30;;;2.30;;
69081;SDS011;69029;51.986;5.760;2023-06-10T14:39:40;3.67;;;2.20;;
69081;SDS011;69029;51.986;5.760;2023-06-10T14:42:05;3.45;;;2.38;;
69081;SDS011;69029;51.986;5.760;2023-06-10T14:44:31;3.08;;;2.17;;
69081;SDS011;69029;51.986;5.760;2023-06-10T14:46:57;4.00;;;2.40;;
69081;SDS011;69029;51.986;5.760;2023-06-10T14:49:23;4.15;;;2.22;;
69081;SDS011;69029;51.986;5.760;2023-06-10T14:51:48;4.10;;;2.50;;
69081;SDS011;69029;51.986;5.760;2023-06-10T14:54:15;3.80;;;2.50;;
69081;SDS011;69029;51.986;5.760;2023-06-10T14:56:40;5.65;;;2.47;;
69081;SDS011;69029;51.986;5.760;2023-06-10T14:59:06;4.25;;;2.60;;
69081;SDS011;69029;51.986;5.760;2023-06-10T15:01:32;3.30;;;2.40;;
69081;SDS011;69029;51.986;5.760;2023-06-10T15:03:57;4.20;;;2.50;;
69081;SDS011;69029;51.986;5.760;2023-06-10T15:06:23;6.97;;;2.65;;
69081;SDS011;69029;51.986;5.760;2023-06-10T15:08:49;3.90;;;2.22;;
69081;SDS011;69029;51.986;5.760;2023-06-10T15:11:15;4.20;;;2.47;;
69081;SDS011;69029;51.986;5.760;2023-06-10T15:13:40;4.95;;;2.72;;
69081;SDS011;69029;51.986;5.760;2023-06-10T15:16:06;3.28;;;2.20;;
69081;SDS011;69029;51.986;5.760;2023-06-10T15:18:32;6.00;;;2.08;;